Time;durP1;ratioP1;P1;durP2;ratioP2;P2;SDS_P1;SDS_P2;PMS_P1;PMS_P2;Temp;Humidity;BMP_temperature;BMP_pressure;BME280_temperature;BME280_humidity;BME280_pressure;Samples;Min_cycle;Max_cycle;Signal;HPM_P1;HPM_P2
2022/08/27 00:00:43;;;;;;;2.85;2.22;;;30.90;99.90;;;;;;5032916;28;20057;-51
2022/08/27 00:03:08;;;;;;;3.00;2.22;;;30.80;99.90;;;;;;5032373;28;20049;-51
2022/08/27 00:05:35;;;;;;;3.33;2.10;;;30.80;99.90;;;;;;5032521;28;20057;-52
2022/08/27 00:08:05;;;;;;;2.72;2.10;;;30.80;99.90;;;;;;5032476;28;20022;-51
2022/08/27 00:10:32;;;;;;;3.08;2.20;;;30.80;99.90;;;;;;5032482;28;20104;-51
2022/08/27 00:12:58;;;;;;;2.78;2.15;;;30.80;99.90;;;;;;5032330;28;20083;-51
2022/08/27 00:15:25;;;;;;;2.85;2.10;;;30.80;99.90;;;;;;5014504;28;20437;-51
2022/08/27 00:17:51;;;;;;;3.25;2.47;;;30.80;99.90;;;;;;5032488;28;20022;-51
2022/08/27 00:20:19;;;;;;;2.70;1.98;;;30.80;99.90;;;;;;5032133;28;20052;-51
2022/08/27 00:22:45;;;;;;;2.67;2.00;;;30.80;99.90;;;;;;5032243;28;20148;-51
2022/08/27 00:25:12;;;;;;;2.58;1.77;;;30.80;99.90;;;;;;5032160;28;20493;-51
2022/08/27 00:27:38;;;;;;;3.38;2.67;;;30.80;99.90;;;;;;5032088;28;20025;-51
2022/08/27 00:30:07;;;;;;;2.40;1.92;;;30.80;99.90;;;;;;5032082;28;20033;-51
2022/08/27 00:32:33;;;;;;;2.67;2.10;;;30.70;99.90;;;;;;5032007;28;20032;-51
2022/08/27 00:34:58;;;;;;;2.53;2.03;;;30.70;99.90;;;;;;5014190;28;20021;-51
2022/08/27 00:37:24;;;;;;;2.70;2.17;;;30.70;99.90;;;;;;5032205;28;20017;-51
2022/08/27 00:39:50;;;;;;;3.53;2.40;;;30.70;99.90;;;;;;5031648;28;20057;-51
2022/08/27 00:42:16;;;;;;;3.25;2.22;;;30.70;99.90;;;;;;5031589;28;20108;-51
2022/08/27 00:44:42;;;;;;;2.92;2.42;;;30.70;99.90;;;;;;5031712;28;20028;-50
2022/08/27 00:47:22;;;;;;;3.45;2.30;;;30.70;99.90;;;;;;5031773;28;20017;-50
2022/08/27 00:49:55;;;;;;;2.90;2.15;;;30.70;99.90;;;;;;5031645;28;20483;-51
2022/08/27 00:52:34;;;;;;;2.13;1.90;;;30.70;99.90;;;;;;5031811;28;20021;-50
2022/08/27 00:55:05;;;;;;;2.80;2.30;;;30.70;99.90;;;;;;5031678;28;20554;-51
2022/08/27 00:57:34;;;;;;;2.08;1.85;;;30.70;99.90;;;;;;5031597;28;20018;-51
2022/08/27 01:00:01;;;;;;;2.97;2.35;;;30.60;99.90;;;;;;5031851;28;20497;-51
2022/08/27 01:02:29;;;;;;;2.78;2.20;;;30.60;99.90;;;;;;5031588;28;20022;-51
2022/08/27 01:05:15;;;;;;;3.35;2.20;;;30.60;99.90;;;;;;5031568;28;20037;-51
2022/08/27 01:07:45;;;;;;;3.92;1.90;;;30.60;99.90;;;;;;5031492;28;20104;-51
2022/08/27 01:10:17;;;;;;;3.72;2.17;;;30.60;99.90;;;;;;5031304;28;20367;-51
2022/08/27 01:12:43;;;;;;;4.47;2.13;;;30.60;99.90;;;;;;5031200;28;20072;-51
2022/08/27 01:15:13;;;;;;;2.83;2.28;;;30.60;99.90;;;;;;5031287;28;20022;-51
2022/08/27 01:17:42;;;;;;;3.38;2.00;;;30.60;99.90;;;;;;5031376;28;20022;-51
2022/08/27 01:20:14;;;;;;;3.30;2.30;;;30.60;99.90;;;;;;5031129;28;20375;-51
2022/08/27 01:22:45;;;;;;;1.95;1.75;;;30.60;99.90;;;;;;5031189;28;20028;-50
2022/08/27 01:25:14;;;;;;;2.78;2.28;;;30.60;99.90;;;;;;5031186;28;20025;-50
2022/08/27 01:27:42;;;;;;;3.55;2.22;;;30.60;99.90;;;;;;5031091;28;20470;-50
2022/08/27 01:30:10;;;;;;;3.55;2.50;;;30.60;99.90;;;;;;5031177;28;20025;-50
2022/08/27 01:32:37;;;;;;;3.42;2.38;;;30.60;99.90;;;;;;5030958;28;20560;-51
2022/08/27 01:35:08;;;;;;;3.22;1.92;;;30.60;99.90;;;;;;5031174;28;20129;-51
2022/08/27 01:37:35;;;;;;;2.60;2.17;;;30.50;99.90;;;;;;5031059;28;20065;-50
2022/08/27 01:40:03;;;;;;;2.63;2.08;;;30.50;99.90;;;;;;5030915;28;20037;-51
2022/08/27 01:42:33;;;;;;;2.60;1.83;;;30.50;99.90;;;;;;5013192;28;20022;-51
2022/08/27 01:45:08;;;;;;;3.17;2.00;;;30.50;99.90;;;;;;5030974;28;20033;-50
2022/08/27 01:47:36;;;;;;;2.45;2.25;;;30.50;99.90;;;;;;5030956;28;20021;-50
2022/08/27 01:50:06;;;;;;;2.88;2.10;;;30.50;99.90;;;;;;5030974;28;20100;-50
2022/08/27 01:52:32;;;;;;;2.55;1.92;;;30.50;99.90;;;;;;5015625;28;20025;-50
2022/08/27 01:54:58;;;;;;;2.85;2.22;;;30.50;99.90;;;;;;5035281;28;20432;-51
2022/08/27 01:57:25;;;;;;;3.40;2.55;;;30.50;99.90;;;;;;5017298;28;20060;-51
2022/08/27 01:59:51;;;;;;;3.13;2.13;;;30.50;99.90;;;;;;5035253;28;20041;-51
2022/08/27 02:02:17;;;;;;;1.73;1.60;;;30.50;99.90;;;;;;5034847;28;20032;-51
2022/08/27 02:04:43;;;;;;;2.85;2.00;;;30.40;99.90;;;;;;5034684;28;20104;-51
2022/08/27 02:07:10;;;;;;;2.87;2.30;;;30.40;99.90;;;;;;5034777;28;20028;-51
2022/08/27 02:09:36;;;;;;;2.92;1.95;;;30.50;99.90;;;;;;5034594;28;20025;-52
2022/08/27 02:12:02;;;;;;;2.20;1.80;;;30.40;99.90;;;;;;5034621;28;20021;-51
2022/08/27 02:14:28;;;;;;;1.83;1.50;;;30.40;99.90;;;;;;5034811;28;20029;-51
2022/08/27 02:16:54;;;;;;;2.72;1.80;;;30.40;99.90;;;;;;5034467;28;20052;-51
2022/08/27 02:19:21;;;;;;;2.53;1.90;;;30.40;99.90;;;;;;5016604;28;20064;-52
2022/08/27 02:21:48;;;;;;;2.33;1.70;;;30.40;99.90;;;;;;5034408;28;20037;-51
2022/08/27 02:24:13;;;;;;;2.50;2.10;;;30.40;99.90;;;;;;5034388;28;20033;-52
2022/08/27 02:26:40;;;;;;;2.10;1.75;;;30.40;99.90;;;;;;5034276;28;20037;-51
2022/08/27 02:29:06;;;;;;;2.47;1.70;;;30.40;99.90;;;;;;5034555;28;20037;-52
2022/08/27 02:31:33;;;;;;;3.30;1.92;;;30.40;99.90;;;;;;5034439;28;20025;-52
2022/08/27 02:33:59;;;;;;;2.55;2.00;;;30.40;99.90;;;;;;5034276;28;20439;-52
2022/08/27 02:36:25;;;;;;;3.10;2.10;;;30.30;99.90;;;;;;5034384;28;20026;-52
2022/08/27 02:38:51;;;;;;;1.95;1.73;;;30.30;99.90;;;;;;5033935;28;20059;-52
2022/08/27 02:41:17;;;;;;;3.30;1.95;;;30.30;99.90;;;;;;5034124;28;20084;-52
2022/08/27 02:43:44;;;;;;;2.72;2.08;;;30.30;99.90;;;;;;5034192;28;20108;-52
2022/08/27 02:46:10;;;;;;;2.35;1.63;;;30.40;99.90;;;;;;5034061;28;20104;-52
2022/08/27 02:48:38;;;;;;;3.80;1.80;;;30.30;99.90;;;;;;5016413;28;20036;-52
2022/08/27 02:51:04;;;;;;;2.60;1.65;;;30.30;99.90;;;;;;5034036;28;20389;-52
2022/08/27 02:53:31;;;;;;;3.33;1.98;;;30.30;99.90;;;;;;5034124;28;20040;-51
2022/08/27 02:55:58;;;;;;;2.30;1.95;;;30.30;99.90;;;;;;5016196;28;20304;-52
2022/08/27 02:58:24;;;;;;;2.00;1.80;;;30.30;99.90;;;;;;5033784;28;20048;-52
2022/08/27 03:00:51;;;;;;;2.05;1.67;;;30.30;99.90;;;;;;5012954;28;20406;-52
2022/08/27 03:03:17;;;;;;;2.92;1.85;;;30.30;99.90;;;;;;5013246;28;20482;-51
2022/08/27 03:05:43;;;;;;;2.58;1.95;;;30.30;99.90;;;;;;5012771;28;20486;-51
2022/08/27 03:08:09;;;;;;;3.38;2.08;;;30.30;99.90;;;;;;5013769;28;20029;-51
2022/08/27 03:10:35;;;;;;;3.80;1.83;;;30.30;99.90;;;;;;5013903;28;20030;-51
2022/08/27 03:13:01;;;;;;;2.92;1.65;;;30.30;99.90;;;;;;5013915;28;20125;-51
2022/08/27 03:15:27;;;;;;;3.20;2.03;;;30.30;99.90;;;;;;5013658;28;20036;-51
2022/08/27 03:20:43;;;;;;;2.60;1.90;;;30.20;99.90;;;;;;5013479;28;20048;-51
2022/08/27 03:23:09;;;;;;;2.38;1.60;;;30.20;99.90;;;;;;5013602;28;20034;-51
2022/08/27 03:25:36;;;;;;;4.13;2.10;;;30.20;99.90;;;;;;5013809;28;20030;-51
2022/08/27 03:28:03;;;;;;;2.53;1.65;;;30.20;99.90;;;;;;5013764;28;20306;-50
2022/08/27 03:30:29;;;;;;;2.40;1.63;;;30.20;99.90;;;;;;5013569;28;20113;-51
2022/08/27 03:32:55;;;;;;;2.63;1.73;;;30.20;99.90;;;;;;5013317;28;20109;-52
2022/08/27 03:35:21;;;;;;;2.03;1.58;;;30.20;99.90;;;;;;5013358;28;20033;-52
2022/08/27 03:37:47;;;;;;;2.17;1.67;;;30.20;99.90;;;;;;5013307;28;20056;-51
2022/08/27 03:40:14;;;;;;;3.72;2.05;;;30.20;99.90;;;;;;5013181;28;20128;-52
2022/08/27 03:42:40;;;;;;;2.75;1.90;;;30.20;99.90;;;;;;5013081;28;20026;-51
2022/08/27 03:45:07;;;;;;;2.88;2.15;;;30.20;99.90;;;;;;5013382;28;20032;-51
2022/08/27 03:47:33;;;;;;;1.73;1.45;;;30.20;99.90;;;;;;5013271;28;20091;-52
2022/08/27 03:49:59;;;;;;;2.25;1.40;;;30.20;99.90;;;;;;5013016;28;20418;-51
2022/08/27 03:52:26;;;;;;;2.65;1.88;;;30.20;99.90;;;;;;5013084;28;20065;-51
2022/08/27 03:54:51;;;;;;;1.90;1.63;;;30.20;99.90;;;;;;5013096;28;20087;-51
2022/08/27 03:57:17;;;;;;;2.67;1.75;;;30.20;99.90;;;;;;5012923;28;20026;-51
2022/08/27 03:59:43;;;;;;;2.95;1.98;;;30.20;99.90;;;;;;5014886;28;20425;-51
2022/08/27 04:02:09;;;;;;;2.55;2.00;;;30.20;99.90;;;;;;5033091;28;20021;-51
2022/08/27 04:04:35;;;;;;;2.45;1.52;;;30.20;99.90;;;;;;5032649;28;20026;-50
2022/08/27 04:07:00;;;;;;;2.72;1.50;;;30.10;99.90;;;;;;5032525;28;20067;-51
2022/08/27 04:09:26;;;;;;;2.05;1.42;;;30.20;99.90;;;;;;5032464;28;20025;-51
2022/08/27 04:11:52;;;;;;;2.03;1.60;;;30.10;99.90;;;;;;5032490;28;20359;-51
2022/08/27 04:14:18;;;;;;;1.75;1.48;;;30.10;99.90;;;;;;5014609;28;20396;-50
2022/08/27 04:16:44;;;;;;;1.60;1.33;;;30.10;99.90;;;;;;5014788;28;20120;-50
2022/08/27 04:19:11;;;;;;;1.85;1.50;;;30.10;99.90;;;;;;5032234;28;20529;-51
2022/08/27 04:21:37;;;;;;;1.63;1.45;;;30.10;99.90;;;;;;5032399;28;20063;-50
2022/08/27 04:24:03;;;;;;;1.98;1.67;;;30.10;99.90;;;;;;5014463;28;20053;-51
2022/08/27 04:26:29;;;;;;;1.70;1.27;;;30.10;99.90;;;;;;5032218;28;20056;-50
2022/08/27 04:28:56;;;;;;;2.00;1.45;;;30.10;99.90;;;;;;5032084;28;20474;-51
2022/08/27 04:31:22;;;;;;;3.20;2.08;;;30.10;99.90;;;;;;5031938;28;20018;-50
2022/08/27 04:33:48;;;;;;;2.15;1.83;;;30.10;99.90;;;;;;5031968;28;20448;-50
2022/08/27 04:36:16;;;;;;;2.45;1.65;;;30.10;99.90;;;;;;5031935;28;20109;-49
2022/08/27 04:38:42;;;;;;;1.85;1.55;;;30.10;99.90;;;;;;5031819;28;20032;-50
2022/08/27 04:41:18;;;;;;;2.58;1.60;;;30.00;99.90;;;;;;5031989;28;20037;-51
2022/08/27 04:43:45;;;;;;;2.00;1.35;;;30.10;99.90;;;;;;5031810;28;20470;-51
2022/08/27 04:46:11;;;;;;;2.67;1.50;;;30.10;99.90;;;;;;5031763;28;20037;-51
2022/08/27 04:48:37;;;;;;;2.55;1.27;;;30.10;99.90;;;;;;5031835;28;20029;-51
2022/08/27 04:51:03;;;;;;;1.80;1.40;;;30.10;99.90;;;;;;5031678;28;20480;-51
2022/08/27 04:53:29;;;;;;;3.15;1.50;;;30.10;99.90;;;;;;5031732;28;20017;-51
2022/08/27 04:55:56;;;;;;;2.53;1.50;;;30.00;99.90;;;;;;5031532;28;20103;-51
2022/08/27 04:58:23;;;;;;;1.67;1.35;;;30.00;99.90;;;;;;5031633;28;20049;-51
2022/08/27 05:00:54;;;;;;;1.70;1.60;;;30.00;99.90;;;;;;5031248;28;20057;-50
2022/08/27 05:03:25;;;;;;;1.55;1.35;;;30.00;99.90;;;;;;5031325;28;20041;-50
2022/08/27 05:05:52;;;;;;;1.83;1.10;;;30.00;99.90;;;;;;5031444;28;20030;-50
2022/08/27 05:08:18;;;;;;;1.65;1.33;;;30.00;99.90;;;;;;5031354;28;20021;-51
2022/08/27 05:10:46;;;;;;;2.07;1.57;;;30.00;99.90;;;;;;5031210;28;20120;-51
2022/08/27 05:13:13;;;;;;;3.22;2.03;;;30.00;99.90;;;;;;5031371;28;20091;-51
2022/08/27 05:15:39;;;;;;;2.10;1.20;;;30.00;99.90;;;;;;5031370;28;20473;-51
2022/08/27 05:18:07;;;;;;;1.40;1.27;;;30.00;99.90;;;;;;5031339;28;20025;-51
2022/08/27 05:20:40;;;;;;;1.30;1.10;;;30.00;99.90;;;;;;5031293;28;20073;-51
2022/08/27 05:23:06;;;;;;;1.42;1.30;;;30.00;99.90;;;;;;5031126;28;20068;-51
2022/08/27 05:25:37;;;;;;;1.48;1.27;;;30.00;99.90;;;;;;5031131;28;20067;-52
2022/08/27 05:28:03;;;;;;;1.80;1.33;;;30.00;99.90;;;;;;5030668;28;20034;-51
2022/08/27 05:30:29;;;;;;;2.92;1.50;;;30.00;99.90;;;;;;5031027;28;20033;-52
2022/08/27 05:32:54;;;;;;;1.83;1.52;;;30.00;99.90;;;;;;5031014;28;20025;-52
2022/08/27 05:35:20;;;;;;;1.67;1.45;;;30.00;99.90;;;;;;5031122;28;20044;-52
2022/08/27 05:37:46;;;;;;;1.80;1.25;;;29.90;99.90;;;;;;5031103;28;20030;-52
2022/08/27 05:40:12;;;;;;;1.52;1.40;;;29.90;99.90;;;;;;5013362;28;20441;-51
2022/08/27 05:42:37;;;;;;;1.90;1.30;;;29.90;99.90;;;;;;5031073;28;20100;-51
2022/08/27 05:45:04;;;;;;;3.22;1.30;;;29.90;99.90;;;;;;5030748;28;20116;-51
2022/08/27 05:47:29;;;;;;;1.77;1.10;;;29.90;99.90;;;;;;5030960;28;20034;-51
2022/08/27 05:49:55;;;;;;;1.70;1.30;;;29.90;99.90;;;;;;5030717;28;20029;-51
2022/08/27 05:52:21;;;;;;;1.67;1.20;;;29.90;99.90;;;;;;5030691;28;20112;-51
2022/08/27 05:54:47;;;;;;;1.20;1.10;;;29.90;99.90;;;;;;5030684;28;20025;-51
2022/08/27 05:57:12;;;;;;;1.60;1.25;;;29.90;99.90;;;;;;5031101;28;20021;-50
2022/08/27 06:02:23;;;;;;;2.65;1.33;;;29.90;99.90;;;;;;5031027;28;20040;-52
2022/08/27 06:04:49;;;;;;;1.98;1.10;;;29.90;99.90;;;;;;5030541;28;20049;-51
2022/08/27 06:07:15;;;;;;;1.27;1.08;;;29.90;99.90;;;;;;5031007;28;20060;-52
2022/08/27 06:09:42;;;;;;;1.15;1.02;;;29.90;99.90;;;;;;5013193;28;20030;-51
2022/08/27 06:12:08;;;;;;;1.45;1.10;;;29.90;99.90;;;;;;5030605;28;20021;-52
2022/08/27 06:14:35;;;;;;;1.35;1.25;;;29.90;99.90;;;;;;5030728;28;20034;-51
2022/08/27 06:17:00;;;;;;;1.92;1.20;;;29.90;99.90;;;;;;5030574;28;20080;-51
2022/08/27 06:19:26;;;;;;;1.30;1.20;;;29.90;99.90;;;;;;5030612;28;20112;-51
2022/08/27 06:21:53;;;;;;;1.85;1.17;;;29.90;99.90;;;;;;5030694;28;20033;-51
2022/08/27 06:24:19;;;;;;;2.00;1.33;;;29.90;99.90;;;;;;5030622;28;20060;-51
2022/08/27 06:26:44;;;;;;;1.35;1.13;;;29.90;99.90;;;;;;5030663;28;20057;-50
2022/08/27 06:29:13;;;;;;;1.77;1.30;;;29.90;99.90;;;;;;5030687;28;20029;-51
2022/08/27 06:31:39;;;;;;;1.52;1.05;;;29.90;99.90;;;;;;5030661;28;20029;-52
2022/08/27 06:34:07;;;;;;;1.25;1.08;;;29.90;99.90;;;;;;5030445;28;20016;-52
2022/08/27 06:36:36;;;;;;;1.50;1.20;;;29.90;99.90;;;;;;5030514;28;20040;-51
2022/08/27 06:39:03;;;;;;;1.45;1.33;;;29.90;99.90;;;;;;5031865;28;20071;-51
2022/08/27 06:41:29;;;;;;;2.63;1.40;;;29.90;99.90;;;;;;5034173;28;20027;-51
2022/08/27 06:43:57;;;;;;;2.53;1.50;;;29.90;99.90;;;;;;5034119;28;20025;-51
2022/08/27 06:46:24;;;;;;;1.23;0.90;;;29.90;99.90;;;;;;5034019;28;20032;-51
2022/08/27 06:48:53;;;;;;;1.48;1.38;;;29.90;99.90;;;;;;5033819;28;20022;-51
2022/08/27 06:51:25;;;;;;;2.30;1.08;;;30.00;99.90;;;;;;5034055;28;20057;-51
2022/08/27 06:53:53;;;;;;;1.85;1.40;;;30.00;99.90;;;;;;5033816;28;20026;-51
2022/08/27 06:56:20;;;;;;;2.03;1.33;;;30.00;99.90;;;;;;5033616;28;20052;-51
2022/08/27 06:58:47;;;;;;;1.30;1.20;;;30.00;99.90;;;;;;5033905;28;20053;-51
2022/08/27 07:01:15;;;;;;;1.42;1.10;;;30.00;99.90;;;;;;5033369;28;20385;-51
2022/08/27 07:03:42;;;;;;;1.65;1.30;;;30.00;99.90;;;;;;5033744;28;20026;-51
2022/08/27 07:06:11;;;;;;;1.10;1.00;;;30.00;99.90;;;;;;5033612;28;20543;-51
2022/08/27 07:08:38;;;;;;;2.63;1.45;;;30.10;99.90;;;;;;5033591;28;20452;-51
2022/08/27 07:11:05;;;;;;;1.33;1.23;;;30.00;99.90;;;;;;5033478;28;20025;-51
2022/08/27 07:13:31;;;;;;;2.45;1.70;;;30.10;99.90;;;;;;5033453;28;20029;-51
2022/08/27 07:15:57;;;;;;;1.30;1.20;;;30.10;99.90;;;;;;5033455;28;20025;-51
2022/08/27 07:18:23;;;;;;;1.48;1.38;;;30.10;99.90;;;;;;5033264;28;20447;-51
2022/08/27 07:20:53;;;;;;;1.50;1.40;;;30.10;99.90;;;;;;5033387;28;20041;-51
2022/08/27 07:23:19;;;;;;;1.83;1.40;;;30.10;99.90;;;;;;5033240;28;20025;-51
2022/08/27 07:25:44;;;;;;;1.73;1.33;;;30.10;99.90;;;;;;5033191;28;20029;-51
2022/08/27 07:28:10;;;;;;;1.30;1.20;;;30.10;99.90;;;;;;5033199;28;20368;-50
2022/08/27 07:30:36;;;;;;;1.95;1.70;;;30.10;99.90;;;;;;5033184;28;20522;-51
2022/08/27 07:33:03;;;;;;;1.45;1.33;;;30.20;99.90;;;;;;5032981;28;20036;-51
2022/08/27 07:35:30;;;;;;;1.93;1.30;;;30.20;99.90;;;;;;5032970;28;20100;-50
2022/08/27 07:37:56;;;;;;;2.55;1.60;;;30.20;99.90;;;;;;5032985;28;20508;-52
2022/08/27 07:40:23;;;;;;;2.37;1.53;;;30.20;99.90;;;;;;5032895;28;20045;-51
2022/08/27 07:45:33;;;;;;;1.77;1.50;;;30.20;99.90;;;;;;5033298;28;20572;-51
2022/08/27 07:47:59;;;;;;;2.33;1.52;;;30.20;99.90;;;;;;5032715;28;20436;-50
2022/08/27 07:50:25;;;;;;;2.05;1.48;;;30.20;99.90;;;;;;5032386;28;20021;-52
2022/08/27 07:52:51;;;;;;;2.50;1.70;;;30.20;99.90;;;;;;5032939;28;20029;-52
2022/08/27 07:55:18;;;;;;;2.33;1.45;;;30.20;99.90;;;;;;5032795;28;20029;-51
2022/08/27 07:57:46;;;;;;;2.63;1.70;;;30.30;99.90;;;;;;5032752;28;20026;-51
2022/08/27 08:00:13;;;;;;;2.08;1.60;;;30.30;99.90;;;;;;5032343;28;20419;-51
2022/08/27 08:02:41;;;;;;;1.67;1.37;;;30.30;99.90;;;;;;5032483;28;20022;-51
2022/08/27 08:05:07;;;;;;;2.58;1.30;;;30.30;99.90;;;;;;5014618;28;20037;-51
2022/08/27 08:07:34;;;;;;;1.42;1.25;;;30.30;99.90;;;;;;5032413;28;20026;-51
2022/08/27 08:10:01;;;;;;;1.40;1.30;;;30.30;99.90;;;;;;5032506;28;20072;-51
2022/08/27 08:12:26;;;;;;;2.03;1.47;;;30.30;99.90;;;;;;5032277;28;20033;-51
2022/08/27 08:14:56;;;;;;;2.03;1.33;;;30.30;99.90;;;;;;5032374;28;20109;-51
2022/08/27 08:17:24;;;;;;;2.50;1.30;;;30.30;99.90;;;;;;5032349;28;20034;-51
2022/08/27 08:19:50;;;;;;;1.55;1.45;;;30.30;99.90;;;;;;5032382;28;20034;-50
2022/08/27 08:22:16;;;;;;;2.00;1.80;;;30.30;99.90;;;;;;5032269;28;20025;-51
2022/08/27 08:24:42;;;;;;;2.47;1.80;;;30.30;99.90;;;;;;5032117;28;20597;-51
2022/08/27 08:27:10;;;;;;;1.90;1.67;;;30.30;99.90;;;;;;5032127;28;20075;-51
2022/08/27 08:29:36;;;;;;;1.80;1.70;;;30.30;99.90;;;;;;5032020;28;20489;-51
2022/08/27 08:32:04;;;;;;;2.20;2.03;;;30.30;99.90;;;;;;5031969;28;20030;-51
2022/08/27 08:34:30;;;;;;;1.90;1.63;;;30.30;99.90;;;;;;5031992;28;20041;-51
2022/08/27 08:36:55;;;;;;;2.53;1.92;;;30.40;99.90;;;;;;5031843;28;20021;-51
2022/08/27 08:39:23;;;;;;;2.05;1.70;;;30.40;99.90;;;;;;5032123;28;20025;-51
2022/08/27 08:41:53;;;;;;;;;;;30.40;99.90;;;;;;5032100;28;20553;-52
2022/08/27 08:44:43;;;;;;;4.43;1.70;;;30.40;99.90;;;;;;5031492;28;19909;-51
2022/08/27 08:47:42;;;;;;;2.60;2.28;;;30.40;99.90;;;;;;5031533;28;20037;-51
2022/08/27 08:50:17;;;;;;;3.60;2.63;;;30.40;99.90;;;;;;5031479;28;20029;-51
2022/08/27 08:52:58;;;;;;;3.28;2.30;;;30.50;99.90;;;;;;5031493;28;20049;-51
2022/08/27 08:55:40;;;;;;;3.50;2.63;;;30.40;99.90;;;;;;5031718;28;20087;-51
2022/08/27 08:58:05;;;;;;;3.67;2.55;;;30.40;99.90;;;;;;5031513;28;20652;-52
2022/08/27 09:00:32;;;;;;;2.58;2.30;;;30.40;99.90;;;;;;5030972;28;20243;-51
2022/08/27 09:02:57;;;;;;;2.78;2.47;;;30.40;99.90;;;;;;5030616;28;20458;-52
2022/08/27 09:05:24;;;;;;;2.55;2.20;;;30.40;99.90;;;;;;5031622;28;20038;-51
2022/08/27 09:08:22;;;;;;;2.83;2.30;;;30.50;99.90;;;;;;5031448;28;20032;-51
2022/08/27 09:11:17;;;;;;;2.67;2.47;;;30.40;99.90;;;;;;5030537;28;20044;-51
2022/08/27 09:13:52;;;;;;;2.75;2.38;;;30.40;99.90;;;;;;5030837;28;20441;-51
2022/08/27 09:16:18;;;;;;;3.53;2.47;;;30.40;99.90;;;;;;5013263;28;20033;-52
2022/08/27 09:18:44;;;;;;;2.87;2.53;;;30.50;99.90;;;;;;5030954;28;20108;-52
2022/08/27 09:21:19;;;;;;;;;;;30.50;99.90;;;;;;5031418;28;20309;-51
2022/08/27 09:24:22;;;;;;;4.47;2.72;;;30.50;99.90;;;;;;5031078;28;20000;-52
2022/08/27 09:26:48;;;;;;;4.15;2.92;;;30.50;99.90;;;;;;5027810;28;20109;-52
2022/08/27 09:29:20;;;;;;;3.05;2.55;;;30.50;99.90;;;;;;5030919;28;20110;-51
2022/08/27 09:31:54;;;;;;;3.28;2.83;;;30.50;99.90;;;;;;5030958;28;20369;-52
2022/08/27 09:34:20;;;;;;;3.75;3.03;;;30.50;99.90;;;;;;5031024;28;20957;-51
2022/08/27 09:36:54;;;;;;;4.30;3.10;;;30.50;99.90;;;;;;5030879;28;20046;-53
2022/08/27 09:39:47;;;;;;;4.18;3.25;;;30.50;99.90;;;;;;5030870;28;20029;-53
2022/08/27 09:42:52;;;;;;;3.25;2.88;;;30.50;99.90;;;;;;5030384;28;20042;-53
2022/08/27 09:45:22;;;;;;;3.03;2.72;;;30.50;99.90;;;;;;5030961;28;20092;-52
2022/08/27 09:47:49;;;;;;;4.60;3.08;;;30.60;99.90;;;;;;5030901;28;20107;-52
2022/08/27 09:50:18;;;;;;;4.20;3.03;;;30.60;99.90;;;;;;5013315;28;20022;-52
2022/08/27 09:52:54;;;;;;;3.20;2.88;;;30.60;99.90;;;;;;5030989;28;20117;-52
2022/08/27 09:55:27;;;;;;;3.15;2.85;;;30.60;99.90;;;;;;5030785;28;20470;-52
2022/08/27 09:57:53;;;;;;;4.38;3.50;;;30.60;99.90;;;;;;5030970;28;20110;-52
2022/08/27 10:00:35;;;;;;;3.28;2.90;;;30.60;99.90;;;;;;5012883;28;20402;-52
2022/08/27 10:03:02;;;;;;;4.22;3.20;;;30.60;99.90;;;;;;5031161;28;20140;-53
2022/08/27 10:05:41;;;;;;;4.22;3.50;;;30.60;99.90;;;;;;5030764;28;20064;-52
2022/08/27 10:08:22;;;;;;;4.30;3.40;;;30.60;99.90;;;;;;5030732;28;20488;-52
2022/08/27 10:11:30;;;;;;;4.38;3.50;;;30.60;99.90;;;;;;5030542;28;20049;-53
2022/08/27 10:14:00;;;;;;;4.85;3.25;;;30.60;99.90;;;;;;5023059;28;20036;-52
2022/08/27 10:16:32;;;;;;;4.03;3.42;;;30.70;99.90;;;;;;5034678;28;20105;-52
2022/08/27 10:19:19;;;;;;;4.07;3.67;;;30.70;99.90;;;;;;5034587;28;20022;-52
2022/08/27 10:22:09;;;;;;;5.18;4.00;;;30.70;99.90;;;;;;5034452;28;20052;-52
2022/08/27 10:25:00;;;;;;;4.57;3.80;;;30.70;99.90;;;;;;5034446;28;20079;-53
2022/08/27 10:28:02;;;;;;;4.75;4.30;;;30.70;99.90;;;;;;5016664;28;20086;-52
2022/08/27 10:30:46;;;;;;;4.80;4.30;;;30.70;99.90;;;;;;5034598;28;20021;-53
2022/08/27 10:33:21;;;;;;;4.80;4.25;;;30.70;99.90;;;;;;5034366;28;20179;-52
2022/08/27 10:36:15;;;;;;;4.07;3.58;;;30.80;99.90;;;;;;5033759;28;20051;-52
2022/08/27 10:38:58;;;;;;;5.38;4.25;;;30.80;99.90;;;;;;5031623;28;20033;-52
2022/08/27 10:41:52;;;;;;;4.93;4.10;;;30.90;99.90;;;;;;5033713;28;20053;-52
2022/08/27 10:44:27;;;;;;;4.97;4.47;;;30.80;99.90;;;;;;5027969;28;20029;-52
2022/08/27 10:47:11;;;;;;;3.72;3.35;;;30.90;99.90;;;;;;5033704;28;20037;-51
2022/08/27 10:49:39;;;;;;;6.13;4.68;;;30.90;99.90;;;;;;5033734;28;20037;-51
2022/08/27 10:52:30;;;;;;;5.05;4.28;;;30.90;99.90;;;;;;5033759;28;20025;-52
2022/08/27 10:55:01;;;;;;;5.63;4.90;;;30.90;99.90;;;;;;5033574;28;20029;-52
2022/08/27 10:57:45;;;;;;;5.38;4.07;;;30.90;99.90;;;;;;5033671;28;20105;-52
2022/08/27 11:00:20;;;;;;;5.03;4.45;;;30.90;99.90;;;;;;5033296;28;20056;-52
2022/08/27 11:03:04;;;;;;;5.15;4.40;;;30.90;99.90;;;;;;5033586;28;20057;-52
2022/08/27 11:05:35;;;;;;;4.97;4.43;;;31.00;99.90;;;;;;5033611;28;20078;-52
2022/08/27 11:08:29;;;;;;;5.40;4.88;;;31.00;99.90;;;;;;5033514;28;20033;-52
2022/08/27 11:11:01;;;;;;;5.53;4.95;;;31.10;99.90;;;;;;5033454;28;20033;-52
2022/08/27 11:13:34;;;;;;;5.03;4.53;;;31.10;99.90;;;;;;5033311;28;20041;-52
2022/08/27 11:16:05;;;;;;;6.30;5.07;;;31.10;99.90;;;;;;5033357;28;20363;-52
2022/08/27 11:18:54;;;;;;;6.55;4.68;;;31.10;99.90;;;;;;5015809;28;20473;-52
2022/08/27 11:21:29;;;;;;;5.40;4.82;;;31.10;99.90;;;;;;5033104;28;20124;-52
2022/08/27 11:24:10;;;;;;;7.10;5.53;;;31.10;99.90;;;;;;5032659;28;20032;-52
2022/08/27 11:26:40;;;;;;;5.80;5.20;;;31.10;99.90;;;;;;5033197;28;20382;-52
2022/08/27 11:29:36;;;;;;;5.25;4.72;;;31.10;99.90;;;;;;5033177;28;20026;-52
2022/08/27 11:32:17;;;;;;;6.20;5.60;;;31.20;99.90;;;;;;5004614;28;20033;-52
2022/08/27 11:34:52;;;;;;;6.32;5.47;;;31.20;99.90;;;;;;5032953;28;20013;-52
2022/08/27 11:37:44;;;;;;;5.88;5.35;;;31.20;99.90;;;;;;5033107;28;20144;-52
2022/08/27 11:40:48;;;;;;;6.47;5.85;;;31.20;99.90;;;;;;5032870;28;20037;-52
2022/08/27 11:43:18;;;;;;;5.55;5.03;;;31.20;99.90;;;;;;5032969;28;20025;-52
2022/08/27 11:45:57;;;;;;;6.55;5.63;;;31.30;99.90;;;;;;5032711;28;20422;-52
2022/08/27 11:48:24;;;;;;;6.13;5.30;;;31.20;99.90;;;;;;5032698;28;20037;-52
2022/08/27 11:50:59;;;;;;;;;;;31.30;99.90;;;;;;5033162;28;20042;-52
2022/08/27 11:53:34;;;;;;;7.05;5.80;;;31.30;99.90;;;;;;5032499;28;19912;-52
2022/08/27 11:56:14;;;;;;;6.13;5.53;;;31.30;99.90;;;;;;5032626;28;20393;-52
2022/08/27 11:58:42;;;;;;;6.50;5.85;;;31.30;99.90;;;;;;5032565;28;20022;-52
2022/08/27 12:01:34;;;;;;;6.30;5.65;;;31.40;99.90;;;;;;5032383;28;20049;-52
2022/08/27 12:04:05;;;;;;;7.22;6.53;;;31.40;99.90;;;;;;5029486;28;20433;-53
2022/08/27 12:06:44;;;;;;;7.18;6.47;;;31.40;99.90;;;;;;5032480;28;20044;-52
2022/08/27 12:09:22;;;;;;;6.97;6.20;;;31.40;99.90;;;;;;5032444;28;20013;-52
2022/08/27 12:12:32;;;;;;;6.75;6.05;;;31.40;99.90;;;;;;5032446;28;20528;-52
2022/08/27 12:15:14;;;;;;;7.15;6.45;;;31.40;99.90;;;;;;5032469;28;20032;-52
2022/08/27 12:17:50;;;;;;;6.72;6.03;;;31.40;99.90;;;;;;5032292;28;20055;-52
2022/08/27 12:20:34;;;;;;;6.72;6.03;;;31.50;99.90;;;;;;5032088;28;20052;-52
2022/08/27 12:23:42;;;;;;;7.40;6.55;;;31.50;99.90;;;;;;5032123;28;20389;-52
2022/08/27 12:26:38;;;;;;;7.07;6.38;;;31.50;99.90;;;;;;5029649;28;20029;-52
2022/08/27 12:29:34;;;;;;;7.50;6.65;;;31.50;99.90;;;;;;5032018;28;20049;-52
2022/08/27 12:32:13;;;;;;;7.82;6.95;;;31.60;99.90;;;;;;5031896;28;20083;-53
2022/08/27 12:34:48;;;;;;;7.28;6.53;;;31.60;99.90;;;;;;5032169;28;20049;-52
2022/08/27 12:37:15;;;;;;;7.40;6.70;;;31.60;99.90;;;;;;5030949;28;20029;-52
2022/08/27 12:39:43;;;;;;;;;;;31.60;99.90;;;;;;5032117;28;20037;-52
2022/08/27 12:42:18;;;;;;;7.45;6.28;;;31.60;99.90;;;;;;5032093;28;19940;-52
2022/08/27 12:44:44;;;;;;;7.93;6.63;;;31.70;99.90;;;;;;5031864;28;20029;-52
2022/08/27 12:47:12;;;;;;;9.32;7.65;;;31.60;99.90;;;;;;5032001;28;20433;-52
2022/08/27 12:49:50;;;;;;;7.75;6.95;;;31.70;99.90;;;;;;5014082;28;20095;-52
2022/08/27 12:52:49;;;;;;;7.90;7.10;;;31.70;99.90;;;;;;5031670;28;20474;-51
2022/08/27 12:55:21;;;;;;;8.15;7.05;;;31.70;99.90;;;;;;5031659;28;20034;-51
2022/08/27 12:58:05;;;;;;;8.30;7.50;;;31.70;99.90;;;;;;5031436;28;20025;-50
2022/08/27 13:00:58;;;;;;;9.18;7.32;;;31.70;99.90;;;;;;5031238;28;20084;-52
2022/08/27 13:03:28;;;;;;;8.95;7.60;;;31.70;99.90;;;;;;5009159;28;20040;-51
2022/08/27 13:05:56;;;;;;;8.38;7.53;;;31.70;99.90;;;;;;5031206;28;20036;-51
2022/08/27 13:08:27;;;;;;;8.57;7.72;;;31.80;99.90;;;;;;5031185;28;20590;-51
2022/08/27 13:10:53;;;;;;;8.98;8.07;;;31.80;99.90;;;;;;5031240;28;20029;-51
2022/08/27 13:13:23;;;;;;;9.10;8.25;;;31.80;99.90;;;;;;5031323;28;20425;-51
2022/08/27 13:15:59;;;;;;;8.75;7.30;;;31.80;99.90;;;;;;5031155;28;20025;-51